createdAt,value
2017-11-05T00:00:24.960Z,1005.48
2017-11-05T00:01:24.946Z,1005.47
2017-11-05T00:02:24.932Z,1005.47
2017-11-05T00:03:24.943Z,1005.52
2017-11-05T00:04:24.906Z,1005.52
2017-11-05T00:05:24.893Z,1005.47
2017-11-05T00:06:24.900Z,1005.48
2017-11-05T00:07:24.866Z,1005.51
2017-11-05T00:08:24.854Z,1005.52
2017-11-05T00:09:24.841Z,1005.51
2017-11-05T00:10:24.828Z,1005.50
2017-11-05T00:11:24.814Z,1005.50
2017-11-05T00:12:24.800Z,1005.48
2017-11-05T00:13:24.788Z,1005.50
2017-11-05T00:14:24.774Z,1005.52
2017-11-05T00:15:24.762Z,1005.52
2017-11-05T00:16:24.748Z,1005.53
2017-11-05T00:17:24.735Z,1005.49
2017-11-05T00:18:24.741Z,1005.49
2017-11-05T00:19:24.709Z,1005.52
2017-11-05T00:20:24.695Z,1005.51
2017-11-05T00:21:24.683Z,1005.46
2017-11-05T00:22:24.669Z,1005.42
2017-11-05T00:23:24.656Z,1005.39
2017-11-05T00:24:24.644Z,1005.40
2017-11-05T00:25:24.630Z,1005.38
2017-11-05T00:26:24.616Z,1005.39
2017-11-05T00:27:24.604Z,1005.37
2017-11-05T00:28:24.590Z,1005.36
2017-11-05T00:29:24.578Z,1005.37
2017-11-05T00:30:24.568Z,1005.41
2017-11-05T00:31:24.551Z,1005.44
2017-11-05T00:32:24.538Z,1005.45
2017-11-05T00:33:24.525Z,1005.46
2017-11-05T00:34:24.511Z,1005.49
2017-11-05T00:35:24.503Z,1005.51
2017-11-05T00:36:24.485Z,1005.50
2017-11-05T00:37:24.473Z,1005.49
2017-11-05T00:38:24.459Z,1005.47
2017-11-05T00:39:24.447Z,1005.51
2017-11-05T00:40:24.434Z,1005.48
2017-11-05T00:41:24.421Z,1005.43
2017-11-05T00:42:24.407Z,1005.46
2017-11-05T00:43:24.394Z,1005.47
2017-11-05T00:44:24.382Z,1005.49
2017-11-05T00:45:24.368Z,1005.50
2017-11-05T00:46:24.358Z,1005.48
2017-11-05T00:47:24.341Z,1005.45
2017-11-05T00:48:24.328Z,1005.48
2017-11-05T00:49:24.316Z,1005.49
2017-11-05T00:50:24.301Z,1005.49
2017-11-05T00:51:24.288Z,1005.50
2017-11-05T00:52:24.276Z,1005.49
2017-11-05T00:53:24.263Z,1005.50
2017-11-05T00:54:24.249Z,1005.49
2017-11-05T00:55:24.235Z,1005.50
2017-11-05T00:56:24.222Z,1005.48
2017-11-05T00:57:24.210Z,1005.46
2017-11-05T00:58:24.195Z,1005.43
2017-11-05T00:59:24.188Z,1005.44
2017-11-05T01:00:24.170Z,1005.44
2017-11-05T01:01:24.157Z,1005.43
2017-11-05T01:02:24.142Z,1005.43
2017-11-05T01:03:24.131Z,1005.44
2017-11-05T01:04:24.117Z,1005.39
2017-11-05T01:05:24.105Z,1005.39
2017-11-05T01:06:24.097Z,1005.43
2017-11-05T01:07:24.078Z,1005.39
2017-11-05T01:08:24.064Z,1005.40
2017-11-05T01:09:24.059Z,1005.42
2017-11-05T01:10:24.037Z,1005.40
2017-11-05T01:11:24.025Z,1005.38
2017-11-05T01:12:24.012Z,1005.38
2017-11-05T01:13:23.998Z,1005.33
2017-11-05T01:14:23.987Z,1005.38
2017-11-05T01:15:23.972Z,1005.31
2017-11-05T01:16:23.959Z,1005.33
2017-11-05T01:17:23.945Z,1005.32
2017-11-05T01:18:23.932Z,1005.31
2017-11-05T01:19:23.925Z,1005.29
2017-11-05T01:20:23.904Z,1005.30
2017-11-05T01:21:23.893Z,1005.28
2017-11-05T01:22:23.878Z,1005.29
2017-11-05T01:23:23.865Z,1005.24
2017-11-05T01:24:23.852Z,1005.24
2017-11-05T01:25:23.839Z,1005.29
2017-11-05T01:26:23.828Z,1005.30
2017-11-05T01:27:23.811Z,1005.33
2017-11-05T01:28:23.799Z,1005.32
2017-11-05T01:29:23.786Z,1005.35
2017-11-05T01:30:23.772Z,1005.35
2017-11-05T01:31:23.759Z,1005.35
2017-11-05T01:32:23.746Z,1005.38
2017-11-05T01:33:23.733Z,1005.42
2017-11-05T01:34:23.718Z,1005.45
2017-11-05T01:35:23.706Z,1005.49
2017-11-05T01:36:23.693Z,1005.45
2017-11-05T01:37:23.679Z,1005.49
2017-11-05T01:38:23.666Z,1005.50
2017-11-05T01:39:23.652Z,1005.49
2017-11-05T01:40:23.639Z,1005.49
2017-11-05T01:41:23.626Z,1005.53
2017-11-05T01:42:23.611Z,1005.59
2017-11-05T01:43:23.599Z,1005.53
2017-11-05T01:44:23.586Z,1005.51
2017-11-05T01:45:23.572Z,1005.51
2017-11-05T01:46:23.558Z,1005.52
2017-11-05T01:47:23.552Z,1005.45
2017-11-05T01:48:23.532Z,1005.48
2017-11-05T01:49:23.519Z,1005.45
2017-11-05T01:50:23.504Z,1005.40
2017-11-05T01:51:23.491Z,1005.43
2017-11-05T01:52:23.478Z,1005.38
2017-11-05T01:53:23.464Z,1005.39
2017-11-05T01:54:23.450Z,1005.38
2017-11-05T01:55:23.437Z,1005.37
2017-11-05T01:56:23.424Z,1005.38
2017-11-05T01:57:23.411Z,1005.39
2017-11-05T01:58:23.407Z,1005.36
2017-11-05T01:59:23.384Z,1005.35
2017-11-05T02:00:23.370Z,1005.42
2017-11-05T02:01:23.357Z,1005.37
2017-11-05T02:02:23.343Z,1005.41
2017-11-05T02:03:23.330Z,1005.40
2017-11-05T02:04:23.317Z,1005.35
2017-11-05T02:05:23.303Z,1005.36
2017-11-05T02:06:23.289Z,1005.36
2017-11-05T02:07:23.276Z,1005.38
2017-11-05T02:08:23.263Z,1005.33
2017-11-05T02:09:23.249Z,1005.35
2017-11-05T02:10:23.234Z,1005.35
2017-11-05T02:11:23.222Z,1005.37
2017-11-05T02:12:23.208Z,1005.37
2017-11-05T02:13:23.195Z,1005.40
2017-11-05T02:14:23.180Z,1005.44
2017-11-05T02:15:23.168Z,1005.42
2017-11-05T02:16:23.154Z,1005.41
2017-11-05T02:17:23.141Z,1005.44
2017-11-05T02:18:23.128Z,1005.44
2017-11-05T02:19:23.114Z,1005.42
2017-11-05T02:20:23.103Z,1005.40
2017-11-05T02:21:23.087Z,1005.42
2017-11-05T02:22:23.072Z,1005.43
2017-11-05T02:23:23.059Z,1005.42
2017-11-05T02:24:23.046Z,1005.44
2017-11-05T02:25:23.032Z,1005.43
2017-11-05T02:26:23.018Z,1005.47
2017-11-05T02:27:23.005Z,1005.44
2017-11-05T02:28:22.991Z,1005.47
2017-11-05T02:29:22.978Z,1005.48
2017-11-05T02:30:22.963Z,1005.46
2017-11-05T02:31:22.950Z,1005.51
2017-11-05T02:32:22.937Z,1005.56
2017-11-05T02:33:22.930Z,1005.54
2017-11-05T02:34:22.909Z,1005.59
2017-11-05T02:35:22.896Z,1005.58
2017-11-05T02:36:22.883Z,1005.56
2017-11-05T02:37:22.870Z,1005.57
2017-11-05T02:38:22.858Z,1005.58
2017-11-05T02:39:22.842Z,1005.54
2017-11-05T02:40:22.829Z,1005.56
2017-11-05T02:41:22.816Z,1005.54
2017-11-05T02:42:22.800Z,1005.53
2017-11-05T02:43:22.787Z,1005.56
2017-11-05T02:44:22.774Z,1005.55
2017-11-05T02:45:22.762Z,1005.52
2017-11-05T02:46:22.746Z,1005.54
2017-11-05T02:47:22.733Z,1005.45
2017-11-05T02:48:22.718Z,1005.48
2017-11-05T02:49:22.708Z,1005.50
2017-11-05T02:50:22.691Z,1005.50
2017-11-05T02:51:22.678Z,1005.53
2017-11-05T02:52:22.665Z,1005.53
2017-11-05T02:53:22.652Z,1005.52
2017-11-05T02:54:22.643Z,1005.55
2017-11-05T02:55:22.639Z,1005.54
2017-11-05T02:56:22.609Z,1005.55
2017-11-05T02:57:22.596Z,1005.54
2017-11-05T02:58:22.582Z,1005.54
2017-11-05T02:59:22.572Z,1005.51
2017-11-05T03:00:22.556Z,1005.54
2017-11-05T03:01:22.542Z,1005.54
2017-11-05T03:02:22.528Z,1005.48
2017-11-05T03:03:22.515Z,1005.46
2017-11-05T03:04:22.501Z,1005.46
2017-11-05T03:05:22.488Z,1005.46
2017-11-05T03:06:22.473Z,1005.49
2017-11-05T03:07:22.460Z,1005.48
2017-11-05T03:08:22.446Z,1005.49
2017-11-05T03:09:22.433Z,1005.50
2017-11-05T03:10:22.418Z,1005.46
2017-11-05T03:11:22.406Z,1005.46
2017-11-05T03:12:22.391Z,1005.48
2017-11-05T03:13:22.378Z,1005.48
2017-11-05T03:14:22.363Z,1005.47
2017-11-05T03:15:22.350Z,1005.49
2017-11-05T03:16:22.336Z,1005.50
2017-11-05T03:17:22.323Z,1005.49
2017-11-05T03:18:22.309Z,1005.42
2017-11-05T03:19:22.295Z,1005.41
2017-11-05T03:20:22.282Z,1005.37
2017-11-05T03:21:22.268Z,1005.43
2017-11-05T03:22:22.253Z,1005.45
2017-11-05T03:23:22.245Z,1005.49
2017-11-05T03:24:22.227Z,1005.46
2017-11-05T03:25:22.217Z,1005.46
2017-11-05T03:26:22.201Z,1005.46
2017-11-05T03:27:22.185Z,1005.47
2017-11-05T03:28:22.172Z,1005.44
2017-11-05T03:29:22.159Z,1005.48
2017-11-05T03:30:22.146Z,1005.49
2017-11-05T03:31:22.131Z,1005.48
2017-11-05T03:32:22.117Z,1005.50
2017-11-05T03:33:22.104Z,1005.52
2017-11-05T03:34:22.090Z,1005.51
2017-11-05T03:35:22.077Z,1005.54
2017-11-05T03:36:22.063Z,1005.52
2017-11-05T03:37:22.049Z,1005.55
2017-11-05T03:38:22.035Z,1005.55
2017-11-05T03:39:22.021Z,1005.58
2017-11-05T03:40:22.007Z,1005.56
2017-11-05T03:41:22.000Z,1005.54
2017-11-05T03:42:21.980Z,1005.57
2017-11-05T03:43:21.966Z,1005.54
2017-11-05T03:44:21.952Z,1005.55
2017-11-05T03:45:21.939Z,1005.58
2017-11-05T03:46:21.924Z,1005.61
2017-11-05T03:47:21.911Z,1005.65
2017-11-05T03:48:21.898Z,1005.67
2017-11-05T03:49:21.884Z,1005.68
2017-11-05T03:50:21.870Z,1005.72
2017-11-05T03:51:21.856Z,1005.74
2017-11-05T03:52:21.842Z,1005.76
2017-11-05T03:53:21.830Z,1005.76
2017-11-05T03:54:21.814Z,1005.73
2017-11-05T03:55:21.824Z,1005.70
2017-11-05T03:56:21.788Z,1005.74
2017-11-05T03:57:21.774Z,1005.71
2017-11-05T03:58:21.760Z,1005.75
2017-11-05T03:59:21.746Z,1005.75
2017-11-05T04:00:21.733Z,1005.74
2017-11-05T04:01:21.719Z,1005.77
2017-11-05T04:02:21.710Z,1005.79
2017-11-05T04:03:21.691Z,1005.82
2017-11-05T04:04:21.677Z,1005.87
2017-11-05T04:05:21.664Z,1005.86
2017-11-05T04:06:21.651Z,1005.89
2017-11-05T04:07:21.636Z,1005.93
2017-11-05T04:08:21.626Z,1005.94
2017-11-05T04:09:21.616Z,1005.96
2017-11-05T04:10:21.597Z,1005.98
2017-11-05T04:11:21.582Z,1005.96
2017-11-05T04:12:21.567Z,1005.95
2017-11-05T04:13:21.557Z,1006.02
2017-11-05T04:14:21.539Z,1006.02
2017-11-05T04:15:21.526Z,1006.03
2017-11-05T04:16:21.512Z,1006.02
2017-11-05T04:17:21.499Z,1006.00
2017-11-05T04:18:21.484Z,1006.01
2017-11-05T04:19:21.472Z,1006.01
2017-11-05T04:20:21.458Z,1005.98
2017-11-05T04:21:21.444Z,1005.99
2017-11-05T04:22:21.431Z,1005.98
2017-11-05T04:23:21.416Z,1005.95
2017-11-05T04:24:21.403Z,1005.96
2017-11-05T04:25:21.389Z,1005.95
2017-11-05T04:26:21.383Z,1005.99
2017-11-05T04:27:21.360Z,1005.97
2017-11-05T04:28:21.347Z,1005.98
2017-11-05T04:29:21.333Z,1006.03
2017-11-05T04:30:21.319Z,1006.01
2017-11-05T04:31:21.305Z,1006.02
2017-11-05T04:32:21.296Z,1006.04
2017-11-05T04:33:21.282Z,1006.07
2017-11-05T04:34:21.265Z,1006.08
2017-11-05T04:35:21.251Z,1006.05
2017-11-05T04:36:21.237Z,1006.07
2017-11-05T04:37:21.224Z,1006.10
2017-11-05T04:38:21.209Z,1006.06
2017-11-05T04:39:21.195Z,1006.05
2017-11-05T04:40:21.182Z,1006.07
2017-11-05T04:41:21.172Z,1006.05
2017-11-05T04:42:21.154Z,1006.10
2017-11-05T04:43:21.141Z,1006.07
2017-11-05T04:44:21.127Z,1006.07
2017-11-05T04:45:21.114Z,1006.09
2017-11-05T04:46:21.100Z,1006.06
2017-11-05T04:47:21.086Z,1006.08
2017-11-05T04:48:21.072Z,1006.12
2017-11-05T04:49:21.058Z,1006.13
2017-11-05T04:50:21.044Z,1006.13
2017-11-05T04:51:21.031Z,1006.11
2017-11-05T04:52:21.017Z,1006.18
2017-11-05T04:53:21.007Z,1006.18
2017-11-05T04:54:20.989Z,1006.23
2017-11-05T04:55:20.976Z,1006.28
2017-11-05T04:56:20.962Z,1006.26
2017-11-05T04:57:20.949Z,1006.29
2017-11-05T04:58:20.934Z,1006.27
2017-11-05T04:59:20.924Z,1006.28
2017-11-05T05:00:20.907Z,1006.27
2017-11-05T05:01:20.893Z,1006.27
2017-11-05T05:02:20.878Z,1006.25
2017-11-05T05:03:20.865Z,1006.28
2017-11-05T05:04:20.852Z,1006.27
2017-11-05T05:05:20.839Z,1006.24
2017-11-05T05:06:20.824Z,1006.28
2017-11-05T05:07:20.810Z,1006.32
2017-11-05T05:08:20.797Z,1006.33
2017-11-05T05:09:20.784Z,1006.34
2017-11-05T05:10:20.769Z,1006.39
2017-11-05T05:11:20.755Z,1006.43
2017-11-05T05:12:20.742Z,1006.41
2017-11-05T05:13:20.728Z,1006.39
2017-11-05T05:14:20.713Z,1006.40
2017-11-05T05:15:20.703Z,1006.40
2017-11-05T05:16:20.686Z,1006.42
2017-11-05T05:17:20.673Z,1006.43
2017-11-05T05:18:20.658Z,1006.40
2017-11-05T05:19:20.645Z,1006.43
2017-11-05T05:20:20.631Z,1006.44
2017-11-05T05:21:20.618Z,1006.45
2017-11-05T05:22:20.604Z,1006.42
2017-11-05T05:23:20.589Z,1006.43
2017-11-05T05:24:20.575Z,1006.46
2017-11-05T05:25:20.561Z,1006.47
2017-11-05T05:26:20.548Z,1006.55
2017-11-05T05:27:20.534Z,1006.54
2017-11-05T05:28:20.524Z,1006.54
2017-11-05T05:29:20.508Z,1006.55
2017-11-05T05:30:20.492Z,1006.59
2017-11-05T05:31:20.479Z,1006.58
2017-11-05T05:32:20.465Z,1006.61
2017-11-05T05:33:20.451Z,1006.64
2017-11-05T05:34:20.437Z,1006.58
2017-11-05T05:35:20.423Z,1006.63
2017-11-05T05:36:20.410Z,1006.67
2017-11-05T05:37:20.395Z,1006.72
2017-11-05T05:38:20.382Z,1006.72
2017-11-05T05:39:20.367Z,1006.75
2017-11-05T05:40:20.354Z,1006.75
2017-11-05T05:41:20.341Z,1006.73
2017-11-05T05:42:20.326Z,1006.73
2017-11-05T05:43:20.312Z,1006.68
2017-11-05T05:44:20.299Z,1006.70
2017-11-05T05:45:20.285Z,1006.73
2017-11-05T05:46:20.271Z,1006.72
2017-11-05T05:47:20.258Z,1006.74
2017-11-05T05:48:20.243Z,1006.76
2017-11-05T05:49:20.230Z,1006.82
2017-11-05T05:50:20.215Z,1006.84
2017-11-05T05:51:20.200Z,1006.84
2017-11-05T05:52:20.188Z,1006.84
2017-11-05T05:53:20.174Z,1006.89
2017-11-05T05:54:20.160Z,1006.89
2017-11-05T05:55:20.146Z,1006.92
2017-11-05T05:56:20.137Z,1006.96
2017-11-05T05:57:20.119Z,1006.97
2017-11-05T05:58:20.105Z,1006.97
2017-11-05T05:59:20.090Z,1006.98
2017-11-05T06:00:20.075Z,1006.99
2017-11-05T06:01:20.063Z,1006.98
2017-11-05T06:02:20.049Z,1007.02
2017-11-05T06:03:20.035Z,1007.05
2017-11-05T06:04:20.022Z,1007.07
2017-11-05T06:05:20.008Z,1007.12
2017-11-05T06:06:19.993Z,1007.14
2017-11-05T06:07:19.979Z,1007.19
2017-11-05T06:08:19.965Z,1007.23
2017-11-05T06:09:19.952Z,1007.22
2017-11-05T06:10:19.937Z,1007.26
2017-11-05T06:11:19.924Z,1007.28
2017-11-05T06:12:19.910Z,1007.27
2017-11-05T06:13:19.896Z,1007.31
2017-11-05T06:14:19.882Z,1007.26
2017-11-05T06:15:19.868Z,1007.28
2017-11-05T06:16:19.855Z,1007.24
2017-11-05T06:17:19.840Z,1007.25
2017-11-05T06:18:19.826Z,1007.26
2017-11-05T06:19:19.812Z,1007.26
2017-11-05T06:20:19.798Z,1007.30
2017-11-05T06:21:19.786Z,1007.31
2017-11-05T06:22:19.770Z,1007.36
2017-11-05T06:23:19.756Z,1007.39
2017-11-05T06:24:19.743Z,1007.41
2017-11-05T06:25:19.729Z,1007.42
2017-11-05T06:26:19.714Z,1007.43
2017-11-05T06:27:19.701Z,1007.50
2017-11-05T06:28:19.687Z,1007.51
2017-11-05T06:29:19.675Z,1007.52
2017-11-05T06:30:19.659Z,1007.52
2017-11-05T06:31:19.644Z,1007.52
2017-11-05T06:32:19.632Z,1007.51
2017-11-05T06:33:19.618Z,1007.53
2017-11-05T06:34:19.603Z,1007.53
2017-11-05T06:35:19.589Z,1007.50
2017-11-05T06:36:19.576Z,1007.47
2017-11-05T06:37:19.562Z,1007.46
2017-11-05T06:38:19.547Z,1007.47
2017-11-05T06:39:19.533Z,1007.45
2017-11-05T06:40:19.523Z,1007.48
2017-11-05T06:41:19.506Z,1007.44
2017-11-05T06:42:19.494Z,1007.46
2017-11-05T06:43:19.478Z,1007.42
2017-11-05T06:44:19.464Z,1007.42
2017-11-05T06:45:19.450Z,1007.41
2017-11-05T06:46:19.435Z,1007.36
2017-11-05T06:47:19.426Z,1007.34
2017-11-05T06:48:19.407Z,1007.32
2017-11-05T06:49:19.394Z,1007.33
2017-11-05T06:50:19.379Z,1007.35
2017-11-05T06:51:19.365Z,1007.38
2017-11-05T06:52:19.354Z,1007.41
2017-11-05T06:53:19.338Z,1007.44
2017-11-05T06:54:19.323Z,1007.50
2017-11-05T06:55:19.314Z,1007.55
2017-11-05T06:56:19.296Z,1007.55
2017-11-05T06:57:19.282Z,1007.55
2017-11-05T06:58:19.268Z,1007.59
2017-11-05T06:59:19.254Z,1007.58
2017-11-05T07:00:19.240Z,1007.59
2017-11-05T07:01:19.227Z,1007.59
2017-11-05T07:02:19.215Z,1007.63
2017-11-05T07:03:19.198Z,1007.61
2017-11-05T07:04:19.184Z,1007.59
2017-11-05T07:05:19.170Z,1007.62
2017-11-05T07:06:19.156Z,1007.65
2017-11-05T07:07:19.142Z,1007.68
2017-11-05T07:08:19.128Z,1007.72
2017-11-05T07:09:19.114Z,1007.71
2017-11-05T07:10:19.100Z,1007.76
2017-11-05T07:11:19.087Z,1007.78
2017-11-05T07:12:19.072Z,1007.78
2017-11-05T07:13:19.059Z,1007.81
2017-11-05T07:14:19.044Z,1007.81
2017-11-05T07:15:19.033Z,1007.83
2017-11-05T07:16:19.017Z,1007.84
2017-11-05T07:17:19.003Z,1007.86
2017-11-05T07:18:18.989Z,1007.87
2017-11-05T07:19:18.976Z,1007.88
2017-11-05T07:20:18.962Z,1007.86
2017-11-05T07:21:18.955Z,1007.83
2017-11-05T07:22:18.933Z,1007.82
2017-11-05T07:23:18.924Z,1007.80
2017-11-05T07:24:18.906Z,1007.82
2017-11-05T07:25:18.892Z,1007.79
2017-11-05T07:26:19.428Z,1007.77
2017-11-05T07:27:18.869Z,1007.78
2017-11-05T07:28:18.851Z,1007.79
2017-11-05T07:29:18.837Z,1007.80
2017-11-05T07:30:18.823Z,1007.93
2017-11-05T07:31:18.809Z,1007.89
2017-11-05T07:32:18.795Z,1007.92
2017-11-05T07:33:18.781Z,1007.95
2017-11-05T07:34:18.767Z,1007.97
2017-11-05T07:35:18.753Z,1008.01
2017-11-05T07:36:18.748Z,1008.04
2017-11-05T07:37:18.726Z,1008.08
2017-11-05T07:38:18.712Z,1008.09
2017-11-05T07:39:18.698Z,1008.07
2017-11-05T07:40:18.688Z,1008.07
2017-11-05T07:41:18.671Z,1008.09
2017-11-05T07:42:18.656Z,1008.07
2017-11-05T07:43:18.643Z,1008.10
2017-11-05T07:44:18.629Z,1008.10
2017-11-05T07:45:18.616Z,1008.11
2017-11-05T07:46:18.601Z,1008.14
2017-11-05T07:47:18.587Z,1008.16
2017-11-05T07:48:18.574Z,1008.23
2017-11-05T07:49:18.560Z,1008.28
2017-11-05T07:50:18.545Z,1008.32
2017-11-05T07:51:18.532Z,1008.34
2017-11-05T07:52:18.518Z,1008.30
2017-11-05T07:53:18.505Z,1008.34
2017-11-05T07:54:18.490Z,1008.32
2017-11-05T07:55:18.477Z,1008.33
2017-11-05T07:56:18.463Z,1008.37
2017-11-05T07:57:18.450Z,1008.34
2017-11-05T07:58:18.435Z,1008.28
2017-11-05T07:59:18.422Z,1008.31
2017-11-05T08:00:18.408Z,1008.26
2017-11-05T08:01:18.394Z,1008.30
2017-11-05T08:02:18.380Z,1008.30
2017-11-05T08:03:18.366Z,1008.30
2017-11-05T08:04:18.353Z,1008.29
2017-11-05T08:05:18.339Z,1008.25
2017-11-05T08:06:18.324Z,1008.25
2017-11-05T08:07:18.310Z,1008.21
2017-11-05T08:08:18.297Z,1008.24
2017-11-05T08:09:18.284Z,1008.21
2017-11-05T08:10:18.270Z,1008.25
2017-11-05T08:11:18.261Z,1008.26
2017-11-05T08:12:18.248Z,1008.26
2017-11-05T08:13:18.227Z,1008.24
2017-11-05T08:14:18.215Z,1008.27
2017-11-05T08:15:18.201Z,1008.28
2017-11-05T08:16:18.188Z,1008.26
2017-11-05T08:17:18.173Z,1008.32
2017-11-05T08:18:18.160Z,1008.32
2017-11-05T08:19:18.145Z,1008.33
2017-11-05T08:20:18.132Z,1008.37
2017-11-05T08:21:18.119Z,1008.32
2017-11-05T08:22:18.106Z,1008.34
2017-11-05T08:23:18.090Z,1008.32
2017-11-05T08:24:18.077Z,1008.30
2017-11-05T08:25:18.062Z,1008.31
2017-11-05T08:26:18.053Z,1008.30
2017-11-05T08:27:19.788Z,1008.26
2017-11-05T08:28:18.022Z,1008.28
2017-11-05T08:29:18.009Z,1008.33
2017-11-05T08:30:17.994Z,1008.36
2017-11-05T08:31:17.981Z,1008.39
2017-11-05T08:32:17.967Z,1008.41
2017-11-05T08:33:17.956Z,1008.43
2017-11-05T08:34:17.940Z,1008.42
2017-11-05T08:35:17.926Z,1008.48
2017-11-05T08:36:17.913Z,1008.49
2017-11-05T08:37:17.900Z,1008.47
2017-11-05T08:38:17.884Z,1008.48
2017-11-05T08:39:17.871Z,1008.46
2017-11-05T08:40:17.858Z,1008.48
2017-11-05T08:41:17.844Z,1008.47
2017-11-05T08:42:17.830Z,1008.48
2017-11-05T08:43:17.817Z,1008.53
2017-11-05T08:44:17.802Z,1008.56
2017-11-05T08:45:17.790Z,1008.55
2017-11-05T08:46:17.776Z,1008.53
2017-11-05T08:47:17.762Z,1008.54
2017-11-05T08:48:17.749Z,1008.56
2017-11-05T08:49:17.734Z,1008.57
2017-11-05T08:50:17.721Z,1008.61
2017-11-05T08:51:17.707Z,1008.61
2017-11-05T08:52:17.694Z,1008.67
2017-11-05T08:53:17.680Z,1008.68
2017-11-05T08:54:17.666Z,1008.67
2017-11-05T08:55:17.652Z,1008.63
2017-11-05T08:56:17.640Z,1008.74
2017-11-05T08:57:17.626Z,1008.76
2017-11-05T08:58:17.611Z,1008.76
2017-11-05T08:59:17.599Z,1008.75
2017-11-05T09:00:17.585Z,1008.76
2017-11-05T09:01:17.572Z,1008.74
2017-11-05T09:02:17.557Z,1008.81
2017-11-05T09:03:17.544Z,1008.83
2017-11-05T09:04:17.530Z,1008.89
2017-11-05T09:05:17.525Z,1008.86
2017-11-05T09:06:17.503Z,1008.91
2017-11-05T09:07:17.490Z,1008.92
2017-11-05T09:08:17.477Z,1008.90
2017-11-05T09:09:17.463Z,1008.94
2017-11-05T09:10:17.455Z,1008.92
2017-11-05T09:11:17.436Z,1008.91
2017-11-05T09:12:17.422Z,1008.94
2017-11-05T09:13:17.421Z,1008.92
2017-11-05T09:14:17.395Z,1008.92
2017-11-05T09:15:17.382Z,1008.91
2017-11-05T09:16:17.374Z,1008.90
2017-11-05T09:17:17.361Z,1008.95
2017-11-05T09:18:17.342Z,1008.91
2017-11-05T09:19:17.328Z,1008.91
2017-11-05T09:20:17.315Z,1008.93
2017-11-05T09:21:17.302Z,1008.95
2017-11-05T09:22:17.287Z,1008.99
2017-11-05T09:23:17.275Z,1009.02
2017-11-05T09:24:17.262Z,1009.00
2017-11-05T09:25:17.250Z,1009.01
2017-11-05T09:26:17.235Z,1009.05
2017-11-05T09:27:17.223Z,1008.99
2017-11-05T09:28:19.965Z,1009.03
2017-11-05T09:29:17.197Z,1009.03
2017-11-05T09:30:17.182Z,1009.03
2017-11-05T09:31:17.170Z,1009.04
2017-11-05T09:32:17.158Z,1009.01
2017-11-05T09:33:17.145Z,1009.03
2017-11-05T09:34:17.131Z,1008.98
2017-11-05T09:35:17.118Z,1008.94
2017-11-05T09:36:17.105Z,1008.99
2017-11-05T09:37:17.093Z,1009.02
2017-11-05T09:38:17.079Z,1009.00
2017-11-05T09:39:17.068Z,1009.03
2017-11-05T09:40:17.054Z,1009.05
2017-11-05T09:41:17.042Z,1009.11
2017-11-05T09:42:17.029Z,1009.09
2017-11-05T09:43:17.016Z,1009.10
2017-11-05T09:44:17.005Z,1009.15
2017-11-05T09:45:16.992Z,1009.18
2017-11-05T09:46:16.983Z,1009.20
2017-11-05T09:47:16.973Z,1009.26
2017-11-05T09:48:16.958Z,1009.27
2017-11-05T09:49:16.942Z,1009.30
2017-11-05T09:50:16.930Z,1009.29
2017-11-05T09:51:16.917Z,1009.33
2017-11-05T09:52:16.905Z,1009.34
2017-11-05T09:53:16.894Z,1009.37
2017-11-05T09:54:16.880Z,1009.36
2017-11-05T09:55:16.867Z,1009.41
2017-11-05T09:56:16.857Z,1009.41
2017-11-05T09:57:16.846Z,1009.42
2017-11-05T09:58:16.832Z,1009.42
2017-11-05T09:59:16.821Z,1009.41
2017-11-05T10:00:16.809Z,1009.42
2017-11-05T10:01:16.798Z,1009.45
2017-11-05T10:02:16.786Z,1009.42
2017-11-05T10:03:16.774Z,1009.45
2017-11-05T10:04:16.763Z,1009.45
2017-11-05T10:05:16.750Z,1009.47
2017-11-05T10:06:16.738Z,1009.53
2017-11-05T10:07:16.727Z,1009.49
2017-11-05T10:08:16.724Z,1009.51
2017-11-05T10:09:16.704Z,1009.51
2017-11-05T10:10:16.692Z,1009.51
2017-11-05T10:11:16.682Z,1009.51
2017-11-05T10:12:16.669Z,1009.52
2017-11-05T10:13:16.659Z,1009.53
2017-11-05T10:14:16.645Z,1009.51
2017-11-05T10:15:16.635Z,1009.55
2017-11-05T10:16:16.628Z,1009.58
2017-11-05T10:17:16.613Z,1009.53
2017-11-05T10:18:16.601Z,1009.55
2017-11-05T10:19:16.591Z,1009.57
2017-11-05T10:20:16.579Z,1009.55
2017-11-05T10:21:16.569Z,1009.57
2017-11-05T10:22:16.555Z,1009.57
2017-11-05T10:23:16.546Z,1009.58
2017-11-05T10:24:16.534Z,1009.56
2017-11-05T10:25:16.527Z,1009.62
2017-11-05T10:26:16.513Z,1009.61
2017-11-05T10:27:16.501Z,1009.63
2017-11-05T10:28:16.492Z,1009.66
2017-11-05T10:29:16.481Z,1009.65
2017-11-05T10:30:16.469Z,1009.67
2017-11-05T10:31:16.458Z,1009.69
2017-11-05T10:32:16.450Z,1009.66
2017-11-05T10:33:16.438Z,1009.67
2017-11-05T10:34:16.426Z,1009.70
2017-11-05T10:35:16.416Z,1009.70
2017-11-05T10:36:16.409Z,1009.74
2017-11-05T10:37:16.396Z,1009.73
2017-11-05T10:38:16.385Z,1009.73
2017-11-05T10:39:16.373Z,1009.75
2017-11-05T10:40:16.363Z,1009.77
2017-11-05T10:41:16.360Z,1009.73
2017-11-05T10:42:16.342Z,1009.72
2017-11-05T10:43:16.333Z,1009.69
2017-11-05T10:44:16.322Z,1009.74
2017-11-05T10:45:16.312Z,1009.78
2017-11-05T10:46:16.300Z,1009.80
2017-11-05T10:47:16.291Z,1009.80
2017-11-05T10:48:16.281Z,1009.76
2017-11-05T10:49:16.270Z,1009.76
2017-11-05T10:50:16.260Z,1009.76
2017-11-05T10:51:16.251Z,1009.78
2017-11-05T10:52:16.241Z,1009.81
2017-11-05T10:53:16.231Z,1009.78
2017-11-05T10:54:16.219Z,1009.79
2017-11-05T10:55:16.209Z,1009.85
2017-11-05T10:56:16.198Z,1009.81
2017-11-05T10:57:16.189Z,1009.82
2017-11-05T10:58:16.178Z,1009.82
2017-11-05T10:59:16.167Z,1009.82
2017-11-05T11:00:16.177Z,1009.81
2017-11-05T11:01:16.169Z,1009.85
2017-11-05T11:02:16.137Z,1009.81
2017-11-05T11:03:16.127Z,1009.75
2017-11-05T11:04:16.166Z,1009.78
2017-11-05T11:05:16.106Z,1009.78
2017-11-05T11:06:16.095Z,1009.82
2017-11-05T11:07:16.089Z,1009.82
2017-11-05T11:08:16.077Z,1009.82
2017-11-05T11:09:16.063Z,1009.85
2017-11-05T11:10:16.055Z,1009.87
2017-11-05T11:11:16.041Z,1009.83
2017-11-05T11:12:16.032Z,1009.85
2017-11-05T11:13:16.020Z,1009.87
2017-11-05T11:14:16.009Z,1009.92
2017-11-05T11:15:15.998Z,1009.90
2017-11-05T11:16:15.987Z,1009.92
2017-11-05T11:17:15.977Z,1009.93
2017-11-05T11:18:15.967Z,1009.88
2017-11-05T11:19:15.955Z,1009.87
2017-11-05T11:20:15.944Z,1009.87
2017-11-05T11:21:15.934Z,1009.88
2017-11-05T11:22:15.923Z,1009.94
2017-11-05T11:23:15.912Z,1009.92
2017-11-05T11:24:15.902Z,1009.92
2017-11-05T11:25:15.891Z,1009.95
2017-11-05T11:26:15.881Z,1009.93
2017-11-05T11:27:15.868Z,1009.93
2017-11-05T11:28:15.858Z,1009.96
2017-11-05T11:29:15.850Z,1009.98
2017-11-05T11:30:15.838Z,1009.99
2017-11-05T11:31:15.827Z,1009.95
2017-11-05T11:32:15.817Z,1009.94
2017-11-05T11:33:15.809Z,1010.02
2017-11-05T11:34:15.895Z,1010.00
2017-11-05T11:35:15.785Z,1010.02
2017-11-05T11:36:15.774Z,1010.01
2017-11-05T11:37:15.770Z,1009.95
2017-11-05T11:38:15.758Z,1009.94
2017-11-05T11:39:15.745Z,1009.95
2017-11-05T11:40:15.741Z,1009.97
2017-11-05T11:41:15.723Z,1009.95
2017-11-05T11:42:15.712Z,1009.94
2017-11-05T11:43:15.700Z,1010.01
2017-11-05T11:44:15.697Z,1010.00
2017-11-05T11:45:15.681Z,1010.03
2017-11-05T11:46:15.670Z,1010.03
2017-11-05T11:47:15.660Z,1010.02
2017-11-05T11:48:15.650Z,1009.98
2017-11-05T11:49:15.641Z,1010.04
2017-11-05T11:50:15.629Z,1009.99
2017-11-05T11:51:15.620Z,1010.03
2017-11-05T11:52:15.609Z,1010.08
2017-11-05T11:53:15.598Z,1010.04
2017-11-05T11:54:15.588Z,1010.05
2017-11-05T11:55:15.578Z,1010.07
2017-11-05T11:56:15.568Z,1010.06
2017-11-05T11:57:15.558Z,1010.11
2017-11-05T11:58:15.547Z,1010.10
2017-11-05T11:59:15.537Z,1010.10
2017-11-05T12:00:15.527Z,1010.12
2017-11-05T12:01:15.517Z,1010.11
2017-11-05T12:02:15.516Z,1010.10
2017-11-05T12:03:15.495Z,1010.11
2017-11-05T12:04:15.485Z,1010.15
2017-11-05T12:05:15.476Z,1010.11